CDT,Max TemperatureF,Mean TemperatureF,Min TemperatureF,Max Dew PointF,MeanDew PointF,Min DewpointF,Max Humidity, Mean Humidity, Min Humidity, Max Sea Level PressureIn, Mean Sea Level PressureIn, Min Sea Level PressureIn, Max VisibilityMiles, Mean VisibilityMiles, Min VisibilityMiles, Max Wind SpeedMPH, Mean Wind SpeedMPH, Max Gust SpeedMPH,PrecipitationIn, CloudCover, Events, WindDirDegrees
2011-10-1,81,61,41,40,34,31,73,46,18,30.20,30.13,30.05,10,10,10,22,9,28,0.00,0,,138
2011-10-2,82,61,39,43,38,36,85,53,20,30.15,30.08,29.99,10,10,10,18,8,23,0.00,0,,135
2011-10-3,87,64,40,52,44,38,89,55,21,30.09,30.02,29.96,10,10,10,14,6,16,0.00,0,,115
2011-10-4,91,70,49,46,37,26,80,45,10,30.03,29.92,29.83,10,10,10,30,11,41,0.00,0,,161
2011-10-5,82,71,60,51,41,37,63,42,20,29.92,29.79,29.69,10,10,10,35,19,48,0.00,0,,161
2011-10-6,83,71,58,61,53,48,72,53,34,29.79,29.59,29.42,10,10,6,41,25,59,0.02,5,Rain-Thunderstorm,160
2011-10-7,79,65,50,63,47,27,90,55,19,29.86,29.72,29.57,10,10,7,24,10,31,0.62,3,Rain-Thunderstorm,186
2011-10-8,63,58,52,57,55,52,100,89,78,30.04,29.91,29.78,10,8,2,38,13,48,1.09,7,Rain-Thunderstorm,105
2011-10-9,57,51,45,54,50,45,100,86,72,30.10,30.05,29.99,10,7,1,9,5,12,0.05,5,Rain,122
2011-10-10,70,56,41,48,45,41,100,70,39,30.04,29.97,29.88,10,10,10,18,8,25,0.00,2,,191
2011-10-11,64,53,42,53,48,43,100,84,67,29.86,29.81,29.72,10,5,0,10,4,13,0.00,4,Fog,174
2011-10-12,68,53,38,48,40,33,100,65,29,30.01,29.88,29.72,10,10,10,32,12,45,T,2,,311
2011-10-13,71,51,31,39,34,30,100,63,25,30.05,29.97,29.87,10,10,10,16,7,21,0.00,0,,297
2011-10-14,64,50,36,40,34,29,83,57,30,30.12,30.06,29.99,10,10,10,16,5,23,0.00,2,,340
2011-10-15,82,58,34,47,39,31,89,55,20,30.10,29.91,29.75,10,10,8,22,6,29,0.00,0,,217
2011-10-16,64,51,38,43,35,25,86,56,25,30.17,30.05,29.86,10,10,10,18,6,24,0.00,0,,8
2011-10-17,49,40,31,43,40,31,96,81,66,30.22,30.09,29.89,10,10,6,20,8,25,0.12,6,Rain,30
2011-10-18,57,44,30,35,29,25,100,64,28,30.32,30.25,30.20,10,10,10,25,10,33,0.00,0,,320
2011-10-19,59,43,26,33,29,24,92,64,36,30.27,30.17,30.06,10,10,10,15,6,20,0.00,1,,328
2011-10-20,61,42,22,36,28,20,92,62,32,30.13,30.08,29.99,10,10,10,12,5,16,0.00,0,,136
2011-10-21,74,51,28,43,36,28,100,62,23,30.17,30.10,30.05,10,10,10,10,4,12,T,0,,314
2011-10-22,69,55,40,45,42,38,89,63,37,30.11,30.06,30.01,10,10,7,13,2,15,0.01,3,Rain,115
2011-10-23,73,53,32,43,37,33,100,65,29,30.08,30.03,30.00,10,10,9,20,7,26,0.00,0,,300
2011-10-24,74,55,35,45,39,33,92,61,29,30.07,29.93,29.73,10,10,10,14,4,16,0.00,0,,128
2011-10-25,58,47,36,42,38,34,96,72,47,30.20,29.94,29.68,10,10,7,26,13,33,0.20,1,Rain,341
2011-10-26,44,35,26,40,33,26,93,75,57,30.28,30.22,30.17,10,10,9,16,9,23,0.06,6,Rain,344
2011-10-27,52,36,20,31,24,18,96,66,36,30.26,30.20,30.07,10,10,10,17,6,21,0.00,0,,278
2011-10-28,58,39,20,32,25,18,100,65,29,30.35,30.25,30.17,10,9,6,10,4,14,0.00,1,,296
2011-10-29,67,46,24,35,27,22,100,61,22,30.13,29.96,29.79,10,9,6,26,8,37,0.00,0,,294
2011-10-30,60,42,24,33,28,24,92,59,26,30.19,30.12,30.01,10,10,10,24,8,32,0.00,1,,309
2011-10-31,75,50,24,38,30,22,92,56,20,30.12,29.97,29.84,10,10,10,18,4,24,0.00,0,,243